Time;durP1;ratioP1;P1;durP2;ratioP2;P2;SDS_P1;SDS_P2;PMS_P1;PMS_P2;Temp;Humidity;BMP_temperature;BMP_pressure;BME280_temperature;BME280_humidity;BME280_pressure;Samples;Min_cycle;Max_cycle;Signal;HPM_P1;HPM_P2
2024/02/19 00:00:54;;;;;;;3.85;2.80;;;;;;;;;;4998627;28;20106;-63
2024/02/19 00:03:45;;;;;;;6.18;3.47;;;;;;;;;;4999459;28;20737;-62
2024/02/19 00:06:34;;;;;;;4.93;3.22;;;;;;;;;;4990203;28;20115;-63
2024/02/19 00:09:26;;;;;;;5.18;3.17;;;;;;;;;;4998294;28;20058;-49
2024/02/19 00:12:13;;;;;;;5.57;3.03;;;;;;;;;;4998131;28;20058;-59
2024/02/19 00:15:07;;;;;;;5.43;3.60;;;;;;;;;;4996283;28;20445;-57
2024/02/19 00:18:00;;;;;;;7.30;3.50;;;;;;;;;;4992472;28;20149;-60
2024/02/19 00:20:35;;;;;;;3.90;2.63;;;;;;;;;;4998272;28;20441;-60
2024/02/19 00:23:32;;;;;;;3.95;2.90;;;;;;;;;;4997443;28;20058;-57
2024/02/19 00:26:16;;;;;;;3.67;2.85;;;;;;;;;;4998600;28;20062;-61
2024/02/19 00:29:10;;;;;;;3.17;2.58;;;;;;;;;;4993846;28;20054;-59
2024/02/19 00:31:58;;;;;;;3.55;2.50;;;;;;;;;;4985674;28;20120;-59
2024/02/19 00:34:51;;;;;;;3.65;2.58;;;;;;;;;;4994702;28;20734;-60
2024/02/19 00:37:38;;;;;;;3.70;2.78;;;;;;;;;;4995043;28;20058;-64
2024/02/19 00:40:32;;;;;;;2.97;2.30;;;;;;;;;;4995161;28;20575;-66
2024/02/19 00:43:19;;;;;;;4.05;2.88;;;;;;;;;;4994871;28;20054;-66
2024/02/19 00:46:13;;;;;;;3.78;2.90;;;;;;;;;;4994931;28;20647;-66
2024/02/19 00:49:00;;;;;;;3.20;2.35;;;;;;;;;;4995530;28;20391;-66
2024/02/19 00:51:54;;;;;;;8.63;3.20;;;;;;;;;;4990289;28;20130;-66
2024/02/19 00:54:44;;;;;;;5.07;2.97;;;;;;;;;;4995751;28;20060;-66
2024/02/19 00:57:37;;;;;;;141.70;6.93;;;;;;;;;;4997766;28;20145;-65
2024/02/19 01:00:26;;;;;;;357.20;13.02;;;;;;;;;;4994928;28;20045;-65
2024/02/19 01:03:18;;;;;;;426.80;16.90;;;;;;;;;;4998235;28;20068;-66
2024/02/19 01:06:06;;;;;;;510.40;23.25;;;;;;;;;;4994573;28;20053;-66
2024/02/19 01:09:01;;;;;;;130.35;7.85;;;;;;;;;;4993721;28;20054;-57
2024/02/19 01:11:47;;;;;;;294.48;11.70;;;;;;;;;;4993705;28;20501;-59
2024/02/19 01:14:41;;;;;;;185.98;9.73;;;;;;;;;;4994978;28;20502;-59
2024/02/19 01:17:35;;;;;;;21.40;4.07;;;;;;;;;;4993980;28;20148;-58
2024/02/19 01:20:29;;;;;;;13.15;2.80;;;;;;;;;;4988725;28;20501;-59
2024/02/19 01:23:16;;;;;;;8.27;3.08;;;;;;;;;;4999223;28;20047;-67
2024/02/19 01:26:10;;;;;;;170.05;7.70;;;;;;;;;;4998659;28;20128;-66
2024/02/19 01:28:57;;;;;;;5.13;2.60;;;;;;;;;;4997820;28;20061;-67
2024/02/19 01:31:51;;;;;;;10.85;3.00;;;;;;;;;;4993702;28;20104;-66
2024/02/19 01:34:45;;;;;;;4.13;2.13;;;;;;;;;;4992510;28;20062;-46
2024/02/19 01:37:39;;;;;;;6.65;2.60;;;;;;;;;;4992514;28;20054;-67
2024/02/19 01:40:26;;;;;;;4.45;2.20;;;;;;;;;;4991499;28;20054;-64
2024/02/19 01:43:20;;;;;;;93.68;5.28;;;;;;;;;;4992431;28;20059;-65
2024/02/19 01:46:07;;;;;;;143.18;6.13;;;;;;;;;;4993645;28;20050;-64
2024/02/19 01:49:04;;;;;;;30.50;3.25;;;;;;;;;;4995921;28;20058;-65
2024/02/19 01:51:53;;;;;;;141.18;6.13;;;;;;;;;;4991120;28;20050;-65
2024/02/19 01:54:46;;;;;;;8.20;2.10;;;;;;;;;;4993527;28;20057;-65
2024/02/19 01:57:33;;;;;;;3.58;2.25;;;;;;;;;;4996220;28;20106;-66
2024/02/19 02:00:28;;;;;;;6.30;2.35;;;;;;;;;;4997805;28;20045;-65
2024/02/19 02:03:22;;;;;;;67.13;4.50;;;;;;;;;;4995054;28;20057;-68
2024/02/19 02:06:16;;;;;;;34.35;2.72;;;;;;;;;;4993453;28;20049;-60
2024/02/19 02:09:03;;;;;;;118.60;4.40;;;;;;;;;;4992151;28;20727;-54
2024/02/19 02:11:57;;;;;;;10.90;2.05;;;;;;;;;;4995013;28;20131;-61
2024/02/19 02:14:44;;;;;;;2.95;2.10;;;;;;;;;;4994596;28;20047;-60
2024/02/19 02:17:44;;;;;;;1.95;1.45;;;;;;;;;;4995847;28;20117;-60
2024/02/19 02:20:32;;;;;;;3.70;1.73;;;;;;;;;;4990936;28;20378;-54
2024/02/19 02:23:26;;;;;;;3.38;1.70;;;;;;;;;;4995285;28;20054;-55
2024/02/19 02:26:20;;;;;;;1.42;1.30;;;;;;;;;;4993129;28;20367;-61
2024/02/19 02:29:07;;;;;;;1.63;1.33;;;;;;;;;;4980464;28;20062;-56
2024/02/19 02:32:01;;;;;;;2.25;1.60;;;;;;;;;;4995443;28;20076;-63
2024/02/19 02:34:48;;;;;;;4.28;1.70;;;;;;;;;;4995199;28;20077;-64
2024/02/19 02:37:42;;;;;;;161.68;7.47;;;;;;;;;;4993543;28;20053;-65
2024/02/19 02:40:30;;;;;;;116.10;4.75;;;;;;;;;;4998853;28;20058;-64
2024/02/19 02:43:23;;;;;;;251.40;11.48;;;;;;;;;;4993958;28;20062;-65
2024/02/19 02:46:10;;;;;;;86.72;4.93;;;;;;;;;;4994836;28;20058;-65
2024/02/19 02:49:04;;;;;;;178.07;8.35;;;;;;;;;;4994720;28;20464;-61
2024/02/19 02:51:51;;;;;;;204.13;8.13;;;;;;;;;;4991910;28;20120;-54
2024/02/19 02:54:45;;;;;;;248.02;12.05;;;;;;;;;;4994924;28;20053;-55
2024/02/19 02:57:32;;;;;;;177.13;7.80;;;;;;;;;;4992110;28;20133;-56
2024/02/19 03:00:26;;;;;;;347.17;14.18;;;;;;;;;;4993119;28;20042;-56
2024/02/19 03:03:14;;;;;;;347.10;16.25;;;;;;;;;;4996558;28;20057;-56
2024/02/19 03:06:08;;;;;;;440.77;21.05;;;;;;;;;;4993443;28;20595;-57
2024/02/19 03:08:58;;;;;;;141.82;8.63;;;;;;;;;;4995601;28;20164;-60
2024/02/19 03:11:52;;;;;;;262.25;13.77;;;;;;;;;;4995644;28;20112;-59
2024/02/19 03:14:40;;;;;;;194.73;10.43;;;;;;;;;;4994228;28;20046;-61
2024/02/19 03:17:40;;;;;;;689.90;32.38;;;;;;;;;;4997430;28;20460;-63
2024/02/19 03:20:28;;;;;;;116.55;8.57;;;;;;;;;;4995004;28;20113;-63
2024/02/19 03:23:21;;;;;;;169.90;12.50;;;;;;;;;;4994479;28;20112;-63
2024/02/19 03:26:15;;;;;;;389.90;17.83;;;;;;;;;;4995824;28;20112;-63
2024/02/19 03:29:11;;;;;;;254.10;15.25;;;;;;;;;;4999200;28;20053;-62
2024/02/19 03:32:05;;;;;;;258.77;18.02;;;;;;;;;;4997424;28;20058;-63
2024/02/19 03:34:52;;;;;;;478.45;24.17;;;;;;;;;;5000056;28;20148;-63
2024/02/19 03:37:46;;;;;;;296.98;17.88;;;;;;;;;;4998537;28;20058;-56
2024/02/19 03:40:33;;;;;;;273.58;16.30;;;;;;;;;;4994723;28;20054;-59
2024/02/19 03:43:27;;;;;;;642.70;29.40;;;;;;;;;;4999871;28;20050;-54
2024/02/19 03:46:15;;;;;;;590.45;31.63;;;;;;;;;;4999223;28;20046;-56
2024/02/19 03:49:08;;;;;;;342.88;20.25;;;;;;;;;;4997156;28;20062;-57
2024/02/19 03:52:02;;;;;;;367.58;19.75;;;;;;;;;;4999141;28;20053;-60
2024/02/19 03:54:49;;;;;;;507.90;27.35;;;;;;;;;;4998354;28;20062;-60
2024/02/19 03:57:44;;;;;;;185.13;11.80;;;;;;;;;;4997087;28;20137;-59
2024/02/19 04:00:30;;;;;;;456.15;22.77;;;;;;;;;;4997158;28;20050;-60
2024/02/19 04:03:24;;;;;;;314.00;17.33;;;;;;;;;;4999966;28;20058;-65
2024/02/19 04:06:12;;;;;;;304.33;16.30;;;;;;;;;;4995939;28;20056;-47
2024/02/19 04:09:06;;;;;;;176.88;11.23;;;;;;;;;;4998486;28;20112;-49
2024/02/19 04:11:53;;;;;;;218.02;14.15;;;;;;;;;;4997631;28;20074;-49
2024/02/19 04:14:47;;;;;;;157.93;11.70;;;;;;;;;;4998684;28;20046;-52
2024/02/19 04:17:40;;;;;;;173.98;12.23;;;;;;;;;;4995170;28;20528;-65
2024/02/19 04:20:41;;;;;;;236.32;12.07;;;;;;;;;;4993789;28;20054;-65
2024/02/19 04:23:28;;;;;;;466.45;23.88;;;;;;;;;;4996866;28;20054;-67
2024/02/19 04:26:22;;;;;;;621.75;25.70;;;;;;;;;;4991693;28;20053;-65
2024/02/19 04:29:16;;;;;;;392.02;19.05;;;;;;;;;;4995382;28;20054;-64
2024/02/19 04:32:03;;;;;;;348.35;15.77;;;;;;;;;;5000313;28;20096;-61
2024/02/19 04:34:57;;;;;;;619.03;29.80;;;;;;;;;;4995649;28;20046;-59
2024/02/19 04:37:44;;;;;;;574.38;26.67;;;;;;;;;;4996138;28;20051;-59
2024/02/19 04:40:38;;;;;;;496.80;24.40;;;;;;;;;;4996553;28;20054;-59
2024/02/19 04:43:25;;;;;;;760.47;36.83;;;;;;;;;;4995304;28;20062;-66
2024/02/19 04:46:19;;;;;;;598.83;29.17;;;;;;;;;;4998040;28;20053;-66
2024/02/19 04:49:13;;;;;;;478.08;24.00;;;;;;;;;;4997167;28;20116;-66
2024/02/19 04:52:00;;;;;;;254.30;15.38;;;;;;;;;;5000566;28;20051;-66
2024/02/19 04:54:54;;;;;;;138.95;10.80;;;;;;;;;;4994716;28;20665;-66
2024/02/19 04:57:55;;;;;;;391.52;17.55;;;;;;;;;;4993106;28;20058;-65
2024/02/19 05:00:43;;;;;;;254.70;13.48;;;;;;;;;;4994309;28;20125;-61
2024/02/19 05:03:43;;;;;;;217.32;12.05;;;;;;;;;;4995744;28;20601;-60
2024/02/19 05:06:30;;;;;;;476.20;21.20;;;;;;;;;;5001597;28;20057;-60
2024/02/19 05:09:24;;;;;;;402.05;23.23;;;;;;;;;;4997241;28;20721;-59
2024/02/19 05:12:12;;;;;;;620.63;28.85;;;;;;;;;;4998602;28;20049;-53
2024/02/19 05:15:05;;;;;;;517.42;20.92;;;;;;;;;;5001530;28;20065;-62
2024/02/19 05:18:06;;;;;;;438.23;23.35;;;;;;;;;;4997697;28;20050;-62
2024/02/19 05:21:02;;;;;;;566.22;23.50;;;;;;;;;;4998920;28;20046;-62
2024/02/19 05:23:48;;;;;;;344.15;16.10;;;;;;;;;;4994671;28;20468;-62
2024/02/19 05:26:41;;;;;;;442.35;21.83;;;;;;;;;;4999213;28;20053;-62
2024/02/19 05:29:28;;;;;;;301.50;15.23;;;;;;;;;;4996299;28;20108;-57
2024/02/19 05:32:25;;;;;;;168.07;11.25;;;;;;;;;;4995731;28;20465;-62
2024/02/19 05:35:12;;;;;;;521.50;22.08;;;;;;;;;;4985164;28;20144;-63
2024/02/19 05:37:46;;;;;;;145.50;8.95;;;;;;;;;;4995393;28;20057;-62
2024/02/19 05:40:14;;;;;;;395.17;20.17;;;;;;;;;;4975797;28;20054;-61
2024/02/19 05:42:41;;;;;;;442.90;22.13;;;;;;;;;;4993116;28;20077;-63
2024/02/19 05:45:15;;;;;;;554.65;25.83;;;;;;;;;;4985658;28;20177;-62
2024/02/19 05:47:42;;;;;;;607.30;26.83;;;;;;;;;;4996427;28;20050;-57
2024/02/19 05:50:16;;;;;;;171.55;9.23;;;;;;;;;;4992942;28;20060;-62
2024/02/19 05:52:44;;;;;;;474.52;20.98;;;;;;;;;;4992568;28;20054;-65
2024/02/19 05:55:38;;;;;;;535.55;25.00;;;;;;;;;;4997983;28;20050;-65
2024/02/19 05:58:25;;;;;;;433.33;20.63;;;;;;;;;;4985622;28;20053;-65
2024/02/19 06:01:19;;;;;;;168.48;11.38;;;;;;;;;;4996334;28;20137;-65
2024/02/19 06:04:07;;;;;;;237.23;13.38;;;;;;;;;;4991176;28;20054;-64
2024/02/19 06:07:02;;;;;;;572.97;24.88;;;;;;;;;;4996246;28;20406;-60
2024/02/19 06:09:48;;;;;;;453.08;20.95;;;;;;;;;;4993693;28;20056;-65
2024/02/19 06:12:42;;;;;;;481.33;19.80;;;;;;;;;;4995843;28;20091;-66
2024/02/19 06:15:29;;;;;;;239.60;13.57;;;;;;;;;;4993635;28;20069;-66
2024/02/19 06:18:30;;;;;;;261.20;14.43;;;;;;;;;;4998392;28;21254;-65
2024/02/19 06:21:20;;;;;;;129.70;9.63;;;;;;;;;;4995204;28;20055;-66
2024/02/19 06:24:14;;;;;;;151.57;11.07;;;;;;;;;;4995807;28;20057;-47
2024/02/19 06:27:08;;;;;;;88.47;7.28;;;;;;;;;;4992132;28;20958;-65
2024/02/19 06:29:55;;;;;;;309.52;16.98;;;;;;;;;;4995113;28;20053;-64
2024/02/19 06:32:49;;;;;;;209.73;12.48;;;;;;;;;;4996223;28;20127;-63
2024/02/19 06:35:44;;;;;;;114.05;9.93;;;;;;;;;;4996702;28;20050;-63
2024/02/19 06:38:37;;;;;;;424.95;22.70;;;;;;;;;;4993254;28;20054;-64
2024/02/19 06:41:24;;;;;;;96.57;8.35;;;;;;;;;;4992760;28;20070;-63
2024/02/19 06:44:18;;;;;;;307.73;16.00;;;;;;;;;;4991930;28;20078;-62
2024/02/19 06:47:05;;;;;;;709.25;34.95;;;;;;;;;;4992963;28;20050;-63
2024/02/19 06:49:59;;;;;;;104.82;9.70;;;;;;;;;;4995303;28;20054;-63
2024/02/19 06:52:46;;;;;;;63.08;8.15;;;;;;;;;;5000069;28;20061;-62
2024/02/19 06:55:40;;;;;;;177.00;11.07;;;;;;;;;;5001214;28;20085;-63
2024/02/19 06:58:27;;;;;;;427.52;20.40;;;;;;;;;;4998150;28;20088;-63
2024/02/19 07:01:21;;;;;;;15.82;6.72;;;;;;;;;;5001461;28;20042;-61
2024/02/19 07:04:11;;;;;;;28.13;7.57;;;;;;;;;;4998432;28;20138;-63
2024/02/19 07:07:08;;;;;;;140.35;11.27;;;;;;;;;;4999155;28;20050;-64
2024/02/19 07:09:51;;;;;;;59.17;6.93;;;;;;;;;;4996794;28;20144;-63
2024/02/19 07:12:45;;;;;;;24.40;7.38;;;;;;;;;;4996681;28;20417;-63
2024/02/19 07:15:32;;;;;;;20.45;6.72;;;;;;;;;;4996421;28;20436;-63
2024/02/19 07:18:26;;;;;;;18.27;6.50;;;;;;;;;;4997341;28;20050;-63
2024/02/19 07:21:21;;;;;;;22.02;7.15;;;;;;;;;;4997277;28;20097;-65
2024/02/19 07:24:08;;;;;;;20.02;6.65;;;;;;;;;;5000437;28;20058;-55
2024/02/19 07:27:03;;;;;;;21.35;7.22;;;;;;;;;;4996166;28;20101;-58
2024/02/19 07:29:50;;;;;;;47.25;7.90;;;;;;;;;;5000983;28;20058;-57
2024/02/19 07:32:43;;;;;;;36.33;8.02;;;;;;;;;;4998833;28;20116;-55
2024/02/19 07:35:31;;;;;;;147.98;12.48;;;;;;;;;;4998117;28;20127;-58
2024/02/19 07:38:24;;;;;;;333.25;17.90;;;;;;;;;;4999363;28;20066;-50
2024/02/19 07:41:15;;;;;;;365.85;19.67;;;;;;;;;;4986990;28;20053;-47
2024/02/19 07:44:09;;;;;;;494.13;21.63;;;;;;;;;;4997359;28;20108;-51
2024/02/19 07:46:56;;;;;;;673.00;31.45;;;;;;;;;;4997144;28;20089;-48
2024/02/19 07:49:50;;;;;;;413.33;19.98;;;;;;;;;;5001099;28;20159;-46
2024/02/19 07:52:44;;;;;;;373.15;18.50;;;;;;;;;;5002357;28;20057;-47
2024/02/19 07:55:41;;;;;;;369.00;18.27;;;;;;;;;;4997647;28;20053;-49
2024/02/19 07:58:35;;;;;;;311.30;16.33;;;;;;;;;;4996262;28;20145;-64
2024/02/19 08:01:29;;;;;;;571.05;27.45;;;;;;;;;;4997190;28;20058;-63
2024/02/19 08:04:17;;;;;;;419.58;19.77;;;;;;;;;;4993422;28;20140;-63
2024/02/19 08:07:10;;;;;;;59.72;7.68;;;;;;;;;;5000500;28;20081;-63
2024/02/19 08:10:04;;;;;;;49.67;7.43;;;;;;;;;;4994808;28;20648;-63
2024/02/19 08:12:52;;;;;;;30.98;6.70;;;;;;;;;;4996398;28;20074;-63
2024/02/19 08:15:45;;;;;;;15.10;5.90;;;;;;;;;;4993236;28;20493;-47
2024/02/19 08:18:39;;;;;;;36.08;7.22;;;;;;;;;;4998739;28;20050;-58
2024/02/19 08:21:33;;;;;;;16.95;6.03;;;;;;;;;;4997310;28;20042;-58
2024/02/19 08:24:20;;;;;;;26.52;7.40;;;;;;;;;;4997034;28;20120;-60
2024/02/19 08:27:14;;;;;;;8.35;4.82;;;;;;;;;;4996840;28;20054;-61
2024/02/19 08:30:02;;;;;;;10.88;5.07;;;;;;;;;;4996433;28;20089;-56
2024/02/19 08:32:55;;;;;;;8.88;5.15;;;;;;;;;;4995883;28;20096;-63
2024/02/19 08:35:42;;;;;;;9.35;5.25;;;;;;;;;;5000058;28;20421;-64
2024/02/19 08:38:36;;;;;;;7.55;4.38;;;;;;;;;;4998213;28;20054;-63
2024/02/19 08:41:23;;;;;;;8.27;5.30;;;;;;;;;;5000100;28;20606;-64
2024/02/19 08:44:17;;;;;;;8.95;5.00;;;;;;;;;;4986139;28;20061;-64
2024/02/19 08:47:11;;;;;;;10.35;4.88;;;;;;;;;;4995449;28;20445;-64
2024/02/19 08:50:05;;;;;;;10.27;5.53;;;;;;;;;;4993429;28;20124;-63
2024/02/19 08:52:53;;;;;;;9.52;5.57;;;;;;;;;;4997132;28;20054;-63
2024/02/19 08:55:46;;;;;;;9.88;5.95;;;;;;;;;;4996802;28;20054;-63
2024/02/19 08:58:34;;;;;;;8.23;5.53;;;;;;;;;;4994157;28;20061;-63
2024/02/19 09:01:27;;;;;;;10.32;5.15;;;;;;;;;;4994904;28;20050;-62
2024/02/19 09:04:16;;;;;;;7.97;5.10;;;;;;;;;;4995790;28;20057;-63
2024/02/19 09:07:09;;;;;;;9.60;6.07;;;;;;;;;;4986107;28;20796;-63
2024/02/19 09:09:56;;;;;;;10.95;6.07;;;;;;;;;;4993360;28;20050;-58
2024/02/19 09:12:50;;;;;;;10.27;5.57;;;;;;;;;;4994536;28;20050;-63
2024/02/19 09:15:37;;;;;;;8.55;4.75;;;;;;;;;;4995437;28;20062;-64
2024/02/19 09:18:38;;;;;;;8.80;4.43;;;;;;;;;;4997549;28;20149;-63
2024/02/19 09:21:25;;;;;;;8.57;3.80;;;;;;;;;;4987969;28;20607;-65
2024/02/19 09:24:19;;;;;;;7.78;3.80;;;;;;;;;;4995979;28;21112;-63
2024/02/19 09:27:06;;;;;;;9.73;3.67;;;;;;;;;;4997202;28;20058;-63
2024/02/19 09:30:00;;;;;;;5.68;2.78;;;;;;;;;;4994085;28;21746;-64
2024/02/19 09:32:47;;;;;;;3.67;2.67;;;;;;;;;;4997849;28;20058;-63
2024/02/19 09:35:41;;;;;;;3.53;2.30;;;;;;;;;;4994616;28;20129;-63
2024/02/19 09:38:35;;;;;;;3.70;2.05;;;;;;;;;;4997468;28;20107;-63
2024/02/19 09:41:22;;;;;;;2.35;1.80;;;;;;;;;;4994580;28;20062;-64
2024/02/19 09:44:16;;;;;;;2.20;1.95;;;;;;;;;;4993031;28;20506;-63
2024/02/19 09:47:04;;;;;;;1.73;1.50;;;;;;;;;;4988443;28;20486;-62
2024/02/19 09:49:59;;;;;;;3.90;2.78;;;;;;;;;;4996333;28;20054;-65
2024/02/19 09:52:46;;;;;;;4.93;2.60;;;;;;;;;;4997408;28;20064;-65
2024/02/19 09:55:41;;;;;;;4.57;2.55;;;;;;;;;;4991104;28;20049;-65
2024/02/19 09:58:28;;;;;;;5.85;2.80;;;;;;;;;;4995142;28;20472;-65
2024/02/19 10:01:24;;;;;;;3.45;2.60;;;;;;;;;;4995908;28;20423;-65
2024/02/19 10:04:10;;;;;;;2.40;1.92;;;;;;;;;;4995820;28;20117;-65
2024/02/19 10:07:03;;;;;;;2.67;2.10;;;;;;;;;;4995145;28;20481;-59
2024/02/19 10:09:51;;;;;;;3.57;2.43;;;;;;;;;;4991106;28;20061;-62
2024/02/19 10:12:45;;;;;;;5.28;2.85;;;;;;;;;;4993766;28;20049;-63
2024/02/19 10:15:32;;;;;;;12.82;3.17;;;;;;;;;;4994935;28;20065;-62
2024/02/19 10:18:33;;;;;;;7.43;2.70;;;;;;;;;;4995422;28;20153;-62
2024/02/19 10:21:20;;;;;;;4.60;2.55;;;;;;;;;;4993925;28;20054;-63
2024/02/19 10:24:16;;;;;;;12.88;3.65;;;;;;;;;;4995098;28;20057;-68
2024/02/19 10:27:09;;;;;;;105.63;6.93;;;;;;;;;;4993206;28;20054;-46
2024/02/19 10:30:06;;;;;;;4.32;2.92;;;;;;;;;;4991874;28;20054;-48
2024/02/19 10:32:52;;;;;;;2.60;2.25;;;;;;;;;;4995886;28;20050;-46
2024/02/19 10:35:44;;;;;;;3.03;1.98;;;;;;;;;;4996007;28;20051;-52
2024/02/19 10:38:38;;;;;;;2.38;2.08;;;;;;;;;;4992656;28;20461;-51
2024/02/19 10:41:36;;;;;;;9.48;2.13;;;;;;;;;;4993473;28;20058;-58
2024/02/19 10:44:23;;;;;;;2.75;2.00;;;;;;;;;;4993475;28;20054;-54
2024/02/19 10:47:17;;;;;;;1.40;1.30;;;;;;;;;;4991535;28;20117;-56
2024/02/19 10:50:07;;;;;;;3.95;2.15;;;;;;;;;;4997331;28;20054;-56
2024/02/19 10:53:04;;;;;;;1.55;1.45;;;;;;;;;;4996988;28;20057;-54
2024/02/19 10:55:53;;;;;;;1.73;1.52;;;;;;;;;;4991500;28;20133;-52
2024/02/19 10:58:55;;;;;;;1.40;1.30;;;;;;;;;;4993445;28;20060;-53
2024/02/19 11:01:44;;;;;;;1.42;1.30;;;;;;;;;;4992201;28;20416;-65
2024/02/19 11:04:37;;;;;;;1.67;1.27;;;;;;;;;;4993774;28;20651;-49
2024/02/19 11:07:24;;;;;;;1.40;1.30;;;;;;;;;;4997589;28;20050;-46
2024/02/19 11:10:18;;;;;;;1.50;1.40;;;;;;;;;;4993267;28;20066;-50
2024/02/19 11:13:08;;;;;;;3.55;1.65;;;;;;;;;;4993050;28;20548;-48
2024/02/19 11:16:03;;;;;;;1.95;1.48;;;;;;;;;;4980646;28;20451;-47
2024/02/19 11:18:59;;;;;;;2.50;2.10;;;;;;;;;;4992942;28;20127;-60
2024/02/19 11:21:49;;;;;;;2.17;1.70;;;;;;;;;;4992611;28;20057;-59
2024/02/19 11:24:38;;;;;;;2.05;1.52;;;;;;;;;;4996684;28;20072;-61
2024/02/19 11:27:33;;;;;;;1.77;1.52;;;;;;;;;;4989329;28;20045;-60
2024/02/19 11:30:20;;;;;;;2.08;1.63;;;;;;;;;;4995641;28;20053;-61
2024/02/19 11:33:14;;;;;;;3.38;2.03;;;;;;;;;;4995631;28;20078;-60
2024/02/19 11:36:01;;;;;;;2.03;1.83;;;;;;;;;;4993432;28;20058;-60
2024/02/19 11:38:55;;;;;;;1.63;1.52;;;;;;;;;;4994685;28;20060;-61
2024/02/19 11:41:43;;;;;;;4.65;1.70;;;;;;;;;;4995209;28;20171;-49
2024/02/19 11:44:36;;;;;;;2.40;2.00;;;;;;;;;;4998698;28;20584;-52
2024/02/19 11:47:24;;;;;;;2.75;1.90;;;;;;;;;;4999088;28;20046;-51
2024/02/19 11:50:21;;;;;;;2.72;1.70;;;;;;;;;;4999379;28;20050;-48
2024/02/19 11:53:12;;;;;;;1.70;1.60;;;;;;;;;;4993823;28;20066;-49
2024/02/19 11:56:03;;;;;;;1.77;1.50;;;;;;;;;;4988640;28;20504;-65
2024/02/19 11:58:57;;;;;;;3.20;1.90;;;;;;;;;;4994075;28;20493;-63
2024/02/19 12:01:57;;;;;;;1.75;1.58;;;;;;;;;;4995473;28;20073;-64
2024/02/19 12:04:50;;;;;;;2.72;2.08;;;;;;;;;;4996866;28;20053;-63
2024/02/19 12:07:38;;;;;;;1.85;1.65;;;;;;;;;;4991389;28;20054;-63
2024/02/19 12:10:26;;;;;;;2.25;1.92;;;;;;;;;;4997059;28;20056;-63
2024/02/19 12:13:20;;;;;;;2.22;1.90;;;;;;;;;;4998133;28;20042;-51
2024/02/19 12:16:09;;;;;;;2.58;2.20;;;;;;;;;;4995951;28;20435;-49
2024/02/19 12:19:09;;;;;;;2.10;1.90;;;;;;;;;;4997835;28;20054;-53
2024/02/19 12:21:56;;;;;;;2.33;2.13;;;;;;;;;;4994851;28;20263;-50
2024/02/19 12:24:52;;;;;;;2.85;2.55;;;;;;;;;;4992043;28;20518;-49
2024/02/19 12:27:38;;;;;;;2.67;2.20;;;;;;;;;;4995207;28;20084;-53
2024/02/19 12:30:32;;;;;;;2.88;2.10;;;;;;;;;;4995341;28;20149;-53
2024/02/19 12:33:19;;;;;;;2.90;2.60;;;;;;;;;;4996835;28;20054;-66
2024/02/19 12:36:13;;;;;;;3.00;2.50;;;;;;;;;;4996050;28;20144;-60
2024/02/19 12:39:02;;;;;;;2.30;2.10;;;;;;;;;;4998819;28;20087;-58
2024/02/19 12:41:55;;;;;;;3.15;2.70;;;;;;;;;;4992417;28;20054;-57
2024/02/19 12:44:42;;;;;;;3.58;2.97;;;;;;;;;;4997385;28;20164;-58
2024/02/19 12:47:35;;;;;;;4.30;3.45;;;;;;;;;;4997033;28;20047;-57
2024/02/19 12:50:23;;;;;;;5.10;4.10;;;;;;;;;;4995913;28;20192;-63
2024/02/19 12:53:16;;;;;;;5.00;3.17;;;;;;;;;;4994674;28;20477;-66
2024/02/19 12:56:06;;;;;;;3.88;3.47;;;;;;;;;;4994018;28;20549;-65
2024/02/19 12:59:00;;;;;;;4.65;3.40;;;;;;;;;;4995417;28;20058;-65
2024/02/19 13:01:49;;;;;;;3.40;3.05;;;;;;;;;;4992907;28;20061;-66
2024/02/19 13:04:45;;;;;;;3.58;2.92;;;;;;;;;;4997088;28;20046;-65
2024/02/19 13:07:33;;;;;;;4.07;3.40;;;;;;;;;;4997159;28;20222;-65
2024/02/19 13:10:26;;;;;;;3.22;2.88;;;;;;;;;;4980436;28;20469;-57
2024/02/19 13:13:16;;;;;;;3.20;2.70;;;;;;;;;;4994455;28;20580;-63
2024/02/19 13:16:08;;;;;;;2.55;2.33;;;;;;;;;;4983481;28;20303;-63
2024/02/19 13:19:08;;;;;;;2.72;2.30;;;;;;;;;;4994893;28;20120;-63
2024/02/19 13:22:05;;;;;;;2.92;2.47;;;;;;;;;;4992770;28;20058;-64
2024/02/19 13:24:51;;;;;;;2.33;2.10;;;;;;;;;;4992633;28;20053;-63
2024/02/19 13:27:45;;;;;;;2.70;2.40;;;;;;;;;;4997829;28;20150;-49
2024/02/19 13:30:33;;;;;;;2.40;2.20;;;;;;;;;;4995554;28;20061;-55
2024/02/19 13:33:26;;;;;;;2.53;2.33;;;;;;;;;;4997032;28;20547;-57
2024/02/19 13:36:16;;;;;;;3.00;2.70;;;;;;;;;;4993660;28;20077;-55
2024/02/19 13:39:09;;;;;;;2.90;2.60;;;;;;;;;;4997610;28;20062;-54
2024/02/19 13:42:03;;;;;;;2.78;2.53;;;;;;;;;;4991284;28;20112;-53
2024/02/19 13:44:49;;;;;;;3.45;2.70;;;;;;;;;;4997510;28;20143;-55
2024/02/19 13:47:44;;;;;;;3.35;2.63;;;;;;;;;;4998359;28;20140;-49
2024/02/19 13:50:37;;;;;;;2.83;2.58;;;;;;;;;;4994949;28;20069;-65
2024/02/19 13:53:32;;;;;;;3.03;2.72;;;;;;;;;;4993799;28;20124;-65
2024/02/19 13:56:18;;;;;;;2.70;2.50;;;;;;;;;;4993057;28;20104;-66
2024/02/19 13:59:13;;;;;;;3.47;2.85;;;;;;;;;;4995768;28;20731;-65
2024/02/19 14:02:00;;;;;;;4.07;3.42;;;;;;;;;;4992312;28;20516;-65
2024/02/19 14:04:53;;;;;;;6.68;4.15;;;;;;;;;;4991249;28;20109;-59
2024/02/19 14:07:41;;;;;;;3.22;2.50;;;;;;;;;;4993735;28;20417;-64
2024/02/19 14:10:37;;;;;;;3.35;2.60;;;;;;;;;;4994918;28;20066;-62
2024/02/19 14:13:24;;;;;;;2.50;2.20;;;;;;;;;;4989656;28;20500;-63
2024/02/19 14:16:28;;;;;;;3.88;2.05;;;;;;;;;;4994413;28;20061;-62
2024/02/19 14:19:29;;;;;;;2.67;2.20;;;;;;;;;;4992327;28;20368;-63
2024/02/19 14:22:24;;;;;;;2.92;2.38;;;;;;;;;;4995839;28;20057;-66
2024/02/19 14:25:17;;;;;;;3.47;2.55;;;;;;;;;;4996540;28;20080;-56
2024/02/19 14:28:08;;;;;;;2.58;2.20;;;;;;;;;;4995727;28;20096;-54
2024/02/19 14:30:59;;;;;;;2.40;2.20;;;;;;;;;;4991494;28;20080;-59
2024/02/19 14:33:50;;;;;;;2.85;2.30;;;;;;;;;;4996387;28;20053;-56
2024/02/19 14:36:43;;;;;;;4.85;2.40;;;;;;;;;;4991937;28;20108;-54
2024/02/19 14:39:30;;;;;;;3.28;2.70;;;;;;;;;;4995924;28;20060;-59
2024/02/19 14:42:24;;;;;;;2.80;2.40;;;;;;;;;;4992555;28;20060;-55
2024/02/19 14:45:12;;;;;;;4.97;2.60;;;;;;;;;;4992096;28;20516;-65
2024/02/19 14:48:05;;;;;;;4.55;2.55;;;;;;;;;;4994134;28;20058;-65
2024/02/19 14:50:59;;;;;;;3.53;2.38;;;;;;;;;;4995827;28;20061;-65
2024/02/19 14:53:53;;;;;;;2.40;2.17;;;;;;;;;;4992706;28;20203;-65
2024/02/19 14:56:45;;;;;;;2.55;2.35;;;;;;;;;;4995546;28;20104;-66
2024/02/19 14:59:34;;;;;;;1.63;1.52;;;;;;;;;;4992314;28;20137;-53
2024/02/19 15:02:26;;;;;;;2.67;2.00;;;;;;;;;;4990458;28;20050;-46
2024/02/19 15:05:22;;;;;;;3.25;1.80;;;;;;;;;;4994981;28;20049;-46
2024/02/19 15:08:15;;;;;;;2.50;2.03;;;;;;;;;;4987560;28;20057;-47
2024/02/19 15:11:04;;;;;;;3.58;2.10;;;;;;;;;;4993464;28;20062;-50
2024/02/19 15:13:52;;;;;;;1.88;1.70;;;;;;;;;;4998523;28;20053;-49
2024/02/19 15:16:45;;;;;;;3.08;2.40;;;;;;;;;;4994733;28;20038;-47
2024/02/19 15:19:39;;;;;;;2.30;2.10;;;;;;;;;;4996613;28;20121;-56
2024/02/19 15:22:32;;;;;;;2.47;2.08;;;;;;;;;;4997525;28;20054;-46
2024/02/19 15:25:26;;;;;;;2.80;2.20;;;;;;;;;;4996601;28;20058;-48
2024/02/19 15:28:13;;;;;;;2.40;2.17;;;;;;;;;;4998312;28;20042;-51
2024/02/19 15:31:07;;;;;;;1.98;1.83;;;;;;;;;;4999441;28;20061;-49
2024/02/19 15:33:55;;;;;;;3.15;2.65;;;;;;;;;;5000540;28;20056;-48
2024/02/19 15:36:48;;;;;;;2.65;2.08;;;;;;;;;;4996082;28;20058;-63
2024/02/19 15:39:42;;;;;;;2.78;2.30;;;;;;;;;;4998858;28;20126;-60
2024/02/19 15:42:37;;;;;;;2.70;2.45;;;;;;;;;;4997751;28;20551;-61
2024/02/19 15:45:30;;;;;;;3.33;2.35;;;;;;;;;;5001877;28;20062;-60
2024/02/19 15:48:23;;;;;;;2.30;2.10;;;;;;;;;;5000031;28;20092;-59
2024/02/19 15:51:17;;;;;;;3.03;2.35;;;;;;;;;;4999541;28;20050;-60
2024/02/19 15:54:11;;;;;;;5.22;1.92;;;;;;;;;;4998222;28;20068;-63
2024/02/19 15:56:59;;;;;;;3.42;2.40;;;;;;;;;;4994464;28;20057;-57
2024/02/19 15:59:52;;;;;;;2.67;2.42;;;;;;;;;;4996398;28;20058;-59
2024/02/19 16:02:40;;;;;;;4.22;2.60;;;;;;;;;;4996355;28;20100;-61
2024/02/19 16:05:33;;;;;;;5.35;2.30;;;;;;;;;;4999599;28;20159;-58
2024/02/19 16:08:24;;;;;;;3.08;2.17;;;;;;;;;;4996468;28;20136;-58
2024/02/19 16:11:17;;;;;;;2.97;2.40;;;;;;;;;;4996698;28;20058;-60
2024/02/19 16:14:05;;;;;;;2.33;2.13;;;;;;;;;;4987200;28;20759;-66
2024/02/19 16:16:58;;;;;;;5.70;2.67;;;;;;;;;;4996025;28;20112;-62
2024/02/19 16:19:59;;;;;;;2.85;2.50;;;;;;;;;;4995396;28;20044;-62
2024/02/19 16:22:54;;;;;;;2.58;2.15;;;;;;;;;;4998775;28;20117;-62
2024/02/19 16:25:41;;;;;;;2.42;2.22;;;;;;;;;;4998271;28;20054;-63
2024/02/19 16:28:35;;;;;;;2.35;2.15;;;;;;;;;;4991965;28;20448;-63
2024/02/19 16:31:22;;;;;;;2.67;2.47;;;;;;;;;;4999452;28;20513;-60
2024/02/19 16:34:16;;;;;;;2.80;2.50;;;;;;;;;;4999380;28;20062;-66
2024/02/19 16:37:04;;;;;;;2.85;2.38;;;;;;;;;;4993403;28;20061;-65
2024/02/19 16:39:57;;;;;;;2.30;2.10;;;;;;;;;;4998361;28;20054;-65
2024/02/19 16:42:45;;;;;;;2.65;2.03;;;;;;;;;;4997170;28;20125;-65
2024/02/19 16:45:38;;;;;;;2.50;2.00;;;;;;;;;;4996329;28;20056;-65
2024/02/19 16:48:26;;;;;;;2.60;2.20;;;;;;;;;;4996424;28;20057;-66
2024/02/19 16:51:20;;;;;;;2.40;2.10;;;;;;;;;;4994122;28;20054;-65